Time;durP1;ratioP1;P1;durP2;ratioP2;P2;SDS_P1;SDS_P2;PMS_P1;PMS_P2;Temp;Humidity;BMP_temperature;BMP_pressure;BME280_temperature;BME280_humidity;BME280_pressure;Samples;Min_cycle;Max_cycle;Signal;HPM_P1;HPM_P2
2022/06/28 00:01:50;;;;;;;;;;;13.20;99.90;;;;;;5055267;28;19924;-65
2022/06/28 00:04:18;;;;;;;;;;;13.20;99.90;;;;;;5055221;28;19917;-65
2022/06/28 00:06:45;;;;;;;;;;;13.20;99.90;;;;;;5054822;28;19917;-65
2022/06/28 00:09:12;;;;;;;;;;;13.10;99.90;;;;;;5054856;28;19927;-65
2022/06/28 00:11:39;;;;;;;;;;;13.10;99.90;;;;;;5055858;28;19917;-65
2022/06/28 00:16:04;;;;;;;;;;;13.10;99.90;;;;;;5055056;28;19916;-65
2022/06/28 00:16:56;;;;;;;;;;;13.00;99.90;;;;;;5055837;28;20363;-65
2022/06/28 00:19:23;;;;;;;;;;;13.00;99.90;;;;;;5053422;28;20383;-65
2022/06/28 00:21:50;;;;;;;;;;;12.90;99.90;;;;;;5055630;28;19916;-65
2022/06/28 00:24:16;;;;;;;;;;;12.90;99.90;;;;;;5085987;28;20348;-65
2022/06/28 00:26:43;;;;;;;;;;;12.90;99.90;;;;;;5054538;28;20308;-65
2022/06/28 00:29:10;;;;;;;;;;;12.90;99.90;;;;;;5087216;28;19923;-65
2022/06/28 00:31:38;;;;;;;;;;;12.80;99.90;;;;;;5054373;28;19917;-65
2022/06/28 00:34:05;;;;;;;;;;;12.80;99.90;;;;;;5054308;28;19966;-65
2022/06/28 00:36:32;;;;;;;;;;;12.80;99.90;;;;;;5054270;28;19917;-65
2022/06/28 00:38:59;;;;;;;;;;;12.80;99.90;;;;;;5054236;28;19931;-65
2022/06/28 00:41:26;;;;;;;;;;;12.70;99.90;;;;;;5086201;28;20344;-65
2022/06/28 00:43:53;;;;;;;;;;;12.70;99.90;;;;;;5086546;28;19964;-65
2022/06/28 00:46:26;;;;;;;;;;;12.60;99.90;;;;;;5054996;28;19918;-65
2022/06/28 00:48:53;;;;;;;;;;;12.60;99.90;;;;;;5070409;28;19927;-64
2022/06/28 00:51:20;;;;;;;;;;;12.60;99.90;;;;;;5086204;28;19923;-65
2022/06/28 00:53:47;;;;;;;;;;;12.60;99.90;;;;;;5053334;28;20310;-65
2022/06/28 00:56:14;;;;;;;;;;;12.50;99.90;;;;;;5053902;28;19921;-65
2022/06/28 00:58:41;;;;;;;;;;;12.50;99.90;;;;;;5053890;28;19917;-65
2022/06/28 01:01:08;;;;;;;;;;;12.40;99.90;;;;;;5054734;28;19916;-65
2022/06/28 01:03:34;;;;;;;;;;;12.40;99.90;;;;;;5086788;28;20022;-65
2022/06/28 01:06:01;;;;;;;;;;;12.30;99.90;;;;;;5069181;28;19932;-65
2022/06/28 01:08:28;;;;;;;;;;;12.30;99.90;;;;;;5085388;28;19916;-65
2022/06/28 01:10:55;;;;;;;;;;;12.30;99.90;;;;;;5052931;28;19917;-65
2022/06/28 01:13:22;;;;;;;;;;;12.30;99.90;;;;;;5053188;28;19916;-65
2022/06/28 01:15:49;;;;;;;;;;;12.20;99.90;;;;;;5053229;28;19923;-65
2022/06/28 01:18:16;;;;;;;;;;;12.20;99.90;;;;;;5085117;28;19923;-65
2022/06/28 01:20:43;;;;;;;;;;;12.20;99.90;;;;;;5053160;28;19960;-65
2022/06/28 01:23:10;;;;;;;;;;;12.10;99.90;;;;;;5084899;28;19916;-65
2022/06/28 01:25:37;;;;;;;;;;;12.10;99.90;;;;;;5053669;28;19917;-65
2022/06/28 01:28:04;;;;;;;;;;;12.10;99.90;;;;;;5052985;28;19920;-65
2022/06/28 01:30:31;;;;;;;;;;;12.10;99.90;;;;;;5068383;28;19916;-65
2022/06/28 01:32:57;;;;;;;;;;;12.10;99.90;;;;;;5084855;28;20019;-65
2022/06/28 01:35:24;;;;;;;;;;;12.10;99.90;;;;;;5083868;28;20278;-65
2022/06/28 01:37:51;;;;;;;;;;;12.10;99.90;;;;;;5053690;28;19917;-65
2022/06/28 01:40:18;;;;;;;;;;;12.10;99.90;;;;;;5052602;28;19917;-65
2022/06/28 01:42:45;;;;;;;;;;;12.00;99.90;;;;;;5052543;28;20351;-65
2022/06/28 01:45:11;;;;;;;;;;;12.00;99.90;;;;;;5052550;28;20015;-65
2022/06/28 01:47:44;;;;;;;;;;;12.00;99.90;;;;;;5084665;28;20070;-65
2022/06/28 01:50:11;;;;;;;;;;;12.00;99.90;;;;;;5083291;28;19924;-65
2022/06/28 01:52:41;;;;;;;;;;;12.00;99.90;;;;;;5067725;28;19916;-65
2022/06/28 01:55:09;;;;;;;;;;;12.00;99.90;;;;;;5084076;28;19978;-65
2022/06/28 01:57:36;;;;;;;;;;;12.00;99.90;;;;;;5052210;28;20364;-65
2022/06/28 02:00:03;;;;;;;;;;;12.00;99.90;;;;;;5052337;28;19923;-66
2022/06/28 02:02:30;;;;;;;;;;;12.00;99.90;;;;;;5051868;28;19917;-65
2022/06/28 02:04:57;;;;;;;;;;;11.90;99.90;;;;;;5053118;28;20352;-66
2022/06/28 02:07:24;;;;;;;;;;;11.90;99.90;;;;;;5013298;28;1153607;-65
2022/06/28 02:09:51;;;;;;;;;;;11.90;99.90;;;;;;5086504;28;19916;-65
2022/06/28 02:12:17;;;;;;;;;;;11.90;99.90;;;;;;5052962;28;19916;-65
2022/06/28 02:14:44;;;;;;;;;;;11.80;99.90;;;;;;5053514;28;19916;-65
2022/06/28 02:17:11;;;;;;;;;;;11.90;99.90;;;;;;5053324;28;19971;-65
2022/06/28 02:19:38;;;;;;;;;;;11.80;99.90;;;;;;5085221;28;20237;-65
2022/06/28 02:22:05;;;;;;;;;;;11.80;99.90;;;;;;5052925;28;19923;-65
2022/06/28 02:24:32;;;;;;;;;;;11.80;99.90;;;;;;5053059;28;20257;-65
2022/06/28 02:26:59;;;;;;;;;;;11.80;99.90;;;;;;5052819;28;19916;-65
2022/06/28 02:29:26;;;;;;;;;;;11.80;99.90;;;;;;5085682;28;20324;-65
2022/06/28 02:31:52;;;;;;;;;;;11.80;99.90;;;;;;5052546;28;19923;-65
2022/06/28 02:42:35;;;;;;;;;;;11.70;99.90;;;;;;5052866;28;19924;-65
2022/06/28 02:45:03;;;;;;;;;;;11.70;99.90;;;;;;5053719;28;19916;-65
2022/06/28 02:47:30;;;;;;;;;;;11.70;99.90;;;;;;5056314;28;19916;-65
2022/06/28 02:49:57;;;;;;;;;;;11.60;99.90;;;;;;5056197;28;19923;-65
2022/06/28 02:52:24;;;;;;;;;;;11.60;99.90;;;;;;5056597;28;19921;-65
2022/06/28 02:54:51;;;;;;;;;;;11.60;99.90;;;;;;5056966;28;19923;-65
2022/06/28 02:57:18;;;;;;;;;;;11.50;99.90;;;;;;5056483;28;19917;-65
2022/06/28 02:59:44;;;;;;;;;;;11.50;99.90;;;;;;5057318;28;19927;-65
2022/06/28 03:02:11;;;;;;;;;;;11.50;99.90;;;;;;5056077;28;19920;-65
2022/06/28 03:04:38;;;;;;;;;;;11.50;99.90;;;;;;5056557;28;19975;-66
2022/06/28 03:07:05;;;;;;;;;;;11.50;99.90;;;;;;5055883;28;19923;-65
2022/06/28 03:09:32;;;;;;;;;;;11.50;99.90;;;;;;5056801;28;20260;-65
2022/06/28 03:11:59;;;;;;;;;;;11.50;99.90;;;;;;5055940;28;19931;-65
2022/06/28 03:14:26;;;;;;;;;;;11.40;99.90;;;;;;5056261;28;19916;-65
2022/06/28 03:16:52;;;;;;;;;;;11.40;99.90;;;;;;5087903;28;19923;-65
2022/06/28 03:19:19;;;;;;;;;;;11.30;99.90;;;;;;5054556;28;20387;-66
2022/06/28 03:21:46;;;;;;;;;;;11.30;99.90;;;;;;5056920;28;19917;-66
2022/06/28 03:24:13;;;;;;;;;;;11.30;99.90;;;;;;5056551;28;19952;-66
2022/06/28 03:26:40;;;;;;;;;;;11.30;99.90;;;;;;5056450;28;20310;-66
2022/06/28 03:29:06;;;;;;;;;;;11.30;99.90;;;;;;5056448;28;19941;-66
2022/06/28 03:31:33;;;;;;;;;;;11.20;99.90;;;;;;5087624;28;19923;-65
2022/06/28 03:34:00;;;;;;;;;;;11.30;99.90;;;;;;5055909;28;19922;-68
2022/06/28 03:36:27;;;;;;;;;;;11.30;99.90;;;;;;5088306;28;19917;-69
2022/06/28 03:38:54;;;;;;;;;;;11.30;99.90;;;;;;5056255;28;19916;-64
2022/06/28 03:41:24;;;;;;;;;;;11.30;99.90;;;;;;5055675;28;19927;-64
2022/06/28 03:43:51;;;;;;;;;;;11.30;99.90;;;;;;5055540;28;19916;-64
2022/06/28 03:46:18;;;;;;;;;;;11.40;99.90;;;;;;5087479;28;20348;-64
2022/06/28 03:48:45;;;;;;;;;;;11.30;99.90;;;;;;5055174;28;19916;-64
2022/06/28 03:51:12;;;;;;;;;;;11.30;99.90;;;;;;5055539;28;20303;-64
2022/06/28 03:53:39;;;;;;;;;;;11.30;99.90;;;;;;5087898;28;19974;-64
2022/06/28 03:56:06;;;;;;;;;;;11.30;99.90;;;;;;5055068;28;20443;-64
2022/06/28 03:58:32;;;;;;;;;;;11.20;99.90;;;;;;5087221;28;19924;-64
2022/06/28 04:00:59;;;;;;;;;;;11.20;99.90;;;;;;5055338;28;19917;-64
2022/06/28 04:03:26;;;;;;;;;;;11.20;99.90;;;;;;5055278;28;19923;-64
2022/06/28 04:05:53;;;;;;;;;;;11.30;99.90;;;;;;5070660;28;20325;-64
2022/06/28 04:08:20;;;;;;;;;;;11.30;99.90;;;;;;5087240;28;19917;-64
2022/06/28 04:10:47;;;;;;;;;;;11.30;99.90;;;;;;5087210;28;19923;-64
2022/06/28 04:13:13;;;;;;;;;;;11.30;99.90;;;;;;5055856;28;20232;-64
2022/06/28 04:15:40;;;;;;;;;;;11.40;99.90;;;;;;5055020;28;19923;-64
2022/06/28 04:18:07;;;;;;;;;;;11.40;99.90;;;;;;5055743;28;19916;-64
2022/06/28 04:20:36;;;;;;;;;;;11.40;99.90;;;;;;5054613;28;19923;-64
2022/06/28 04:23:02;;;;;;;;;;;11.50;99.90;;;;;;5054908;28;19917;-64
2022/06/28 04:25:29;;;;;;;;;;;11.50;99.90;;;;;;5054915;28;19999;-64
2022/06/28 04:27:56;;;;;;;;;;;11.50;99.90;;;;;;5054736;28;20275;-64
2022/06/28 04:30:25;;;;;;;;;;;11.60;99.90;;;;;;5055193;28;19917;-64
2022/06/28 04:32:51;;;;;;;;;;;11.60;99.90;;;;;;5087211;28;19923;-64
2022/06/28 04:35:18;;;;;;;;;;;11.60;99.90;;;;;;5054612;28;19916;-64
2022/06/28 04:37:45;;;;;;;;;;;11.60;99.90;;;;;;5054320;28;19956;-64
2022/06/28 04:40:12;;;;;;;;;;;11.70;99.90;;;;;;5054226;28;19943;-64
2022/06/28 04:42:39;;;;;;;;;;;11.80;99.90;;;;;;5054432;28;19916;-64
2022/06/28 04:45:06;;;;;;;;;;;12.20;99.90;;;;;;5086069;28;19966;-64
2022/06/28 04:47:33;;;;;;;;;;;12.60;99.90;;;;;;5055019;28;19917;-64
2022/06/28 04:50:00;;;;;;;;;;;13.10;99.90;;;;;;5054015;28;19917;-64
2022/06/28 04:52:27;;;;;;;;;;;13.70;99.90;;;;;;5054443;28;19942;-64
2022/06/28 04:54:53;;;;;;;;;;;14.20;99.90;;;;;;5055165;28;20237;-64
2022/06/28 04:57:20;;;;;;;;;;;14.70;99.90;;;;;;5053940;28;19917;-64
2022/06/28 04:59:47;;;;;;;;;;;15.20;99.90;;;;;;5053897;28;19917;-64
2022/06/28 05:02:14;;;;;;;;;;;15.80;99.90;;;;;;5054184;28;19917;-63
2022/06/28 05:04:41;;;;;;;;;;;16.30;99.90;;;;;;5053512;28;20336;-62
2022/06/28 05:07:08;;;;;;;;;;;16.80;99.90;;;;;;5054146;28;19923;-63
2022/06/28 05:09:34;;;;;;;;;;;17.30;99.90;;;;;;5053498;28;19917;-62
2022/06/28 05:12:02;;;;;;;;;;;17.70;99.90;;;;;;5054302;28;20002;-62
2022/06/28 05:14:29;;;;;;;;;;;18.10;99.90;;;;;;5085992;28;20011;-62
2022/06/28 05:16:55;;;;;;;;;;;18.40;99.90;;;;;;5053666;28;19923;-62
2022/06/28 05:19:22;;;;;;;;;;;18.70;99.90;;;;;;5053942;28;19921;-63
2022/06/28 05:21:49;;;;;;;;;;;18.90;99.90;;;;;;5054485;28;20011;-63
2022/06/28 05:24:16;;;;;;;;;;;19.00;99.90;;;;;;5069271;28;19974;-62
2022/06/28 05:26:43;;;;;;;;;;;19.20;99.90;;;;;;5053516;28;19916;-62
2022/06/28 05:29:10;;;;;;;;;;;19.30;99.90;;;;;;5054721;28;19924;-62
2022/06/28 05:31:37;;;;;;;;;;;19.20;99.90;;;;;;5053778;28;19924;-62
2022/06/28 05:34:03;;;;;;;;;;;19.20;99.90;;;;;;5052251;28;19917;-62
2022/06/28 05:36:30;;;;;;;;;;;19.20;99.90;;;;;;5085673;28;19917;-63
2022/06/28 05:38:57;;;;;;;;;;;19.30;99.90;;;;;;5053389;28;19931;-62
2022/06/28 05:41:24;;;;;;;;;;;19.40;99.90;;;;;;5085790;28;19924;-62
2022/06/28 05:43:55;;;;;;;;;;;19.30;99.90;;;;;;5053390;28;19916;-63
2022/06/28 05:46:21;;;;;;;;;;;19.20;99.90;;;;;;5053912;28;20295;-62
2022/06/28 05:48:48;;;;;;;;;;;19.00;99.90;;;;;;5054032;28;20230;-63
2022/06/28 05:51:16;;;;;;;;;;;18.80;99.90;;;;;;5053305;28;20473;-63
2022/06/28 05:53:43;;;;;;;;;;;18.70;99.90;;;;;;5085115;28;19916;-62
2022/06/28 05:56:10;;;;;;;;;;;18.70;99.90;;;;;;5053545;28;19916;-63
2022/06/28 05:58:37;;;;;;;;;;;18.60;99.90;;;;;;5053492;28;20082;-63
2022/06/28 06:01:04;;;;;;;;;;;18.30;99.90;;;;;;5054001;28;19986;-64
2022/06/28 06:03:32;;;;;;;;;;;18.30;99.90;;;;;;5052005;28;20008;-64
2022/06/28 06:05:58;;;;;;;;;;;18.30;99.90;;;;;;5053804;28;19939;-65
2022/06/28 06:08:25;;;;;;;;;;;18.20;99.90;;;;;;5085164;28;20343;-63
2022/06/28 06:10:52;;;;;;;;;;;18.20;99.90;;;;;;5054152;28;19924;-65
2022/06/28 06:13:19;;;;;;;;;;;18.10;99.90;;;;;;5051931;28;20217;-65
2022/06/28 06:15:46;;;;;;;;;;;18.10;99.90;;;;;;5052150;28;19924;-66
2022/06/28 06:18:12;;;;;;;;;;;18.00;99.90;;;;;;5053008;28;19921;-65
2022/06/28 06:20:39;;;;;;;;;;;17.70;99.90;;;;;;5053871;28;19932;-65
2022/06/28 06:23:06;;;;;;;;;;;17.70;99.90;;;;;;5056914;28;20283;-72
2022/06/28 06:25:33;;;;;;;;;;;17.40;99.90;;;;;;5056863;28;19917;-72
2022/06/28 06:28:00;;;;;;;;;;;17.40;99.90;;;;;;5056789;28;20295;-73
2022/06/28 06:30:27;;;;;;;;;;;17.40;99.90;;;;;;5056753;28;19921;-73
2022/06/28 06:32:54;;;;;;;;;;;17.40;99.90;;;;;;5055565;28;19955;-73
2022/06/28 06:35:21;;;;;;;;;;;17.50;99.90;;;;;;5057051;28;19916;-73
2022/06/28 06:37:48;;;;;;;;;;;17.50;99.90;;;;;;5056929;28;20267;-73
2022/06/28 06:40:14;;;;;;;;;;;17.60;99.90;;;;;;5057287;28;19924;-65
2022/06/28 06:42:41;;;;;;;;;;;17.60;99.90;;;;;;5056911;28;19916;-62
2022/06/28 06:45:09;;;;;;;;;;;17.70;99.90;;;;;;5056836;28;19916;-66
2022/06/28 06:47:36;;;;;;;;;;;17.80;99.90;;;;;;5057584;28;20276;-66
2022/06/28 06:50:08;;;;;;;;;;;17.80;99.90;;;;;;5056389;28;19916;-66
2022/06/28 06:52:35;;;;;;;;;;;17.90;99.90;;;;;;5087369;28;19916;-66
2022/06/28 06:55:03;;;;;;;;;;;17.80;99.90;;;;;;5056634;28;20016;-66
2022/06/28 06:57:30;;;;;;;;;;;17.90;99.90;;;;;;5056332;28;20379;-66
2022/06/28 06:59:57;;;;;;;;;;;18.00;99.90;;;;;;5056269;28;20396;-69
2022/06/28 07:02:23;;;;;;;;;;;18.00;99.90;;;;;;5056538;28;20256;-72
2022/06/28 07:04:50;;;;;;;;;;;18.00;99.90;;;;;;5089024;28;19982;-72
2022/06/28 07:07:18;;;;;;;;;;;18.10;99.90;;;;;;5056131;28;19916;-72
2022/06/28 07:09:45;;;;;;;;;;;18.20;99.90;;;;;;5056000;28;20007;-74
2022/06/28 07:12:11;;;;;;;;;;;18.30;99.90;;;;;;5088383;28;19920;-74
2022/06/28 07:14:38;;;;;;;;;;;18.30;99.90;;;;;;5056220;28;20356;-72
2022/06/28 07:17:05;;;;;;;;;;;18.20;99.90;;;;;;5056958;28;19916;-74
2022/06/28 07:19:32;;;;;;;;;;;18.20;99.90;;;;;;5056742;28;20015;-72
2022/06/28 07:21:59;;;;;;;;;;;18.20;99.90;;;;;;5055788;28;19917;-73
2022/06/28 07:24:26;;;;;;;;;;;18.30;99.90;;;;;;5056038;28;19917;-72
2022/06/28 07:26:52;;;;;;;;;;;18.30;99.90;;;;;;5056087;28;19923;-74
2022/06/28 07:29:19;;;;;;;;;;;18.30;99.90;;;;;;5056404;28;19916;-74
2022/06/28 07:31:46;;;;;;;;;;;18.30;99.90;;;;;;5055625;28;20366;-73
2022/06/28 07:34:13;;;;;;;;;;;18.30;99.90;;;;;;5054671;28;20245;-72
2022/06/28 07:36:40;;;;;;;;;;;18.40;99.90;;;;;;5055574;28;20379;-70
2022/06/28 07:39:07;;;;;;;;;;;18.40;99.90;;;;;;5055439;28;19920;-73
2022/06/28 07:41:34;;;;;;;;;;;18.30;99.90;;;;;;5056362;28;19939;-73
2022/06/28 07:44:01;;;;;;;;;;;18.40;99.90;;;;;;5055956;28;20336;-73
2022/06/28 07:46:28;;;;;;;;;;;18.50;99.90;;;;;;5054436;28;20003;-73
2022/06/28 07:48:55;;;;;;;;;;;18.60;99.90;;;;;;5055352;28;19970;-77
2022/06/28 07:54:07;;;;;;;;;;;18.90;99.90;;;;;;5055373;28;19921;-73
2022/06/28 07:56:35;;;;;;;;;;;18.90;99.90;;;;;;5055276;28;20305;-69
2022/06/28 07:59:02;;;;;;;;;;;19.00;99.90;;;;;;5087582;28;19917;-73
2022/06/28 08:01:28;;;;;;;;;;;19.00;99.90;;;;;;5055127;28;19916;-74
2022/06/28 08:03:55;;;;;;;;;;;18.90;99.90;;;;;;5055100;28;19916;-74
2022/06/28 08:06:22;;;;;;;;;;;18.80;99.90;;;;;;5054990;28;19958;-74
2022/06/28 08:08:49;;;;;;;;;;;18.70;99.90;;;;;;5054984;28;19917;-71
2022/06/28 08:11:17;;;;;;;;;;;18.80;99.90;;;;;;5054680;28;19917;-68
2022/06/28 08:13:48;;;;;;;;;;;19.00;99.90;;;;;;5055607;28;19916;-68
2022/06/28 08:16:14;;;;;;;;;;;19.20;99.90;;;;;;5086779;28;19917;-69
2022/06/28 08:18:42;;;;;;;;;;;19.30;99.90;;;;;;5086853;28;19916;-69
2022/06/28 08:21:09;;;;;;;;;;;19.50;99.90;;;;;;5087014;28;19923;-69
2022/06/28 08:23:36;;;;;;;;;;;19.70;99.90;;;;;;5054976;28;19917;-71
2022/06/28 08:26:02;;;;;;;;;;;19.60;99.90;;;;;;5054717;28;20352;-74
2022/06/28 08:28:29;;;;;;;;;;;19.60;99.90;;;;;;5054659;28;19917;-70
2022/06/28 08:30:56;;;;;;;;;;;19.60;99.90;;;;;;5087553;28;19917;-73
2022/06/28 08:33:23;;;;;;;;;;;19.60;99.90;;;;;;5054810;28;20360;-69
2022/06/28 08:35:50;;;;;;;;;;;19.70;99.90;;;;;;5087338;28;20015;-69
2022/06/28 08:38:17;;;;;;;;;;;19.90;99.90;;;;;;5054398;28;19923;-70
2022/06/28 08:40:44;;;;;;;;;;;20.00;99.90;;;;;;5054652;28;19916;-70
2022/06/28 08:43:11;;;;;;;;;;;20.00;99.90;;;;;;5087528;28;19923;-69
2022/06/28 08:45:38;;;;;;;;;;;19.90;99.90;;;;;;5054854;28;20007;-70
2022/06/28 08:48:13;;;;;;;;;;;19.80;99.90;;;;;;5086286;28;20360;-70
2022/06/28 08:50:40;;;;;;;;;;;19.70;99.90;;;;;;5054068;28;19923;-70
2022/06/28 08:53:08;;;;;;;;;;;19.60;99.90;;;;;;5069567;28;19923;-70
2022/06/28 08:55:35;;;;;;;;;;;19.50;99.90;;;;;;5086296;28;19916;-70
2022/06/28 08:58:04;;;;;;;;;;;19.30;99.90;;;;;;5070480;28;19924;-70
2022/06/28 09:00:31;;;;;;;;;;;19.30;99.90;;;;;;5054026;28;20356;-70
2022/06/28 09:02:58;;;;;;;;;;;19.40;99.90;;;;;;5086320;28;19927;-70
2022/06/28 09:05:25;;;;;;;;;;;19.50;99.90;;;;;;5054509;28;19923;-70
2022/06/28 09:07:55;;;;;;;;;;;19.60;99.90;;;;;;5054959;28;19939;-70
2022/06/28 09:10:22;;;;;;;;;;;19.80;99.90;;;;;;5085994;28;19917;-70
2022/06/28 09:13:10;;;;;;;;;;;20.10;99.90;;;;;;5053718;28;19924;-70
2022/06/28 09:15:56;;;;;;;;;;;20.20;99.90;;;;;;5054336;28;20344;-70
2022/06/28 09:18:27;;;;;;;;;;;20.40;99.90;;;;;;5086638;28;19939;-70
2022/06/28 09:20:55;;;;;;;;;;;20.40;99.90;;;;;;5053759;28;20345;-70
2022/06/28 09:23:27;;;;;;;;;;;20.30;99.90;;;;;;5086526;28;20201;-70
2022/06/28 09:25:54;;;;;;;;;;;20.40;99.90;;;;;;5053928;28;20356;-70
2022/06/28 09:28:22;;;;;;;;;;;20.70;99.90;;;;;;5085594;28;19963;-70
2022/06/28 09:30:49;;;;;;;;;;;21.00;99.90;;;;;;5085822;28;19916;-70
2022/06/28 09:33:26;;;;;;;;;;;21.20;99.90;;;;;;5053534;28;19923;-70
2022/06/28 09:35:53;;;;;;;;;;;21.30;97.90;;;;;;5053571;28;19916;-70
2022/06/28 09:38:30;;;;;;;;;;;21.10;98.20;;;;;;5084088;28;19917;-70
2022/06/28 09:40:57;;;;;;;;;;;20.80;98.90;;;;;;5085145;28;20348;-70
2022/06/28 09:43:29;;;;;;;;;;;20.40;99.60;;;;;;5053677;28;19917;-70
2022/06/28 09:45:56;;;;;;;;;;;20.00;99.50;;;;;;5086460;28;20345;-70
2022/06/28 09:48:23;;;;;;;;;;;19.60;99.90;;;;;;5069656;28;19924;-70
2022/06/28 09:50:56;;;;;;;;;;;19.40;99.90;;;;;;5053318;28;20344;-70
2022/06/28 09:53:23;;;;;;;;;;;19.30;99.90;;;;;;5085963;28;19975;-70
2022/06/28 09:55:50;;;;;;;;;;;19.30;99.90;;;;;;5085460;28;19923;-70
2022/06/28 09:58:17;;;;;;;;;;;19.50;99.90;;;;;;5089607;28;19924;-70
2022/06/28 10:00:44;;;;;;;;;;;19.70;99.90;;;;;;5090012;28;19917;-70
2022/06/28 10:03:11;;;;;;;;;;;19.90;99.90;;;;;;5089942;28;20353;-70
2022/06/28 10:05:38;;;;;;;;;;;20.10;99.90;;;;;;5057306;28;19971;-70
2022/06/28 10:08:05;;;;;;;;;;;20.20;99.90;;;;;;5089711;28;19967;-70
2022/06/28 10:10:33;;;;;;;;;;;20.30;99.90;;;;;;5089692;28;19916;-70
2022/06/28 10:15:57;;;;;;;;;;;20.40;99.90;;;;;;5084444;28;19923;-70
2022/06/28 10:18:24;;;;;;;;;;;20.40;99.90;;;;;;5089270;28;20106;-71
2022/06/28 10:20:51;;;;;;;;;;;20.40;99.90;;;;;;5090041;28;20240;-70
2022/06/28 10:23:40;;;;;;;;;;;20.40;99.90;;;;;;5072229;28;20347;-70
2022/06/28 10:26:19;;;;;;;;;;;20.40;99.90;;;;;;5088757;28;19978;-70
2022/06/28 10:28:46;;;;;;;;;;;20.40;99.90;;;;;;5089106;28;19923;-70
2022/06/28 10:31:25;;;;;;;;;;;20.30;99.90;;;;;;5056825;28;19923;-70
2022/06/28 10:34:16;;;;;;;;;;;20.40;99.90;;;;;;5056688;28;19916;-70
2022/06/28 10:36:46;;;;;;;;;;;20.40;99.90;;;;;;5088759;28;19924;-70
2022/06/28 10:39:14;;;;;;;;;;;20.30;99.90;;;;;;5056716;28;19916;-70
2022/06/28 10:41:45;;;;;;;;;;;20.00;99.90;;;;;;5056626;28;19935;-70
2022/06/28 10:44:21;;;;;;;;;;;19.90;99.90;;;;;;5089620;28;19920;-70
2022/06/28 10:46:49;;;;;;;;;;;20.10;99.90;;;;;;5056622;28;19916;-68
2022/06/28 10:49:16;;;;;;;;;;;20.30;99.90;;;;;;5056818;28;19940;-70
2022/06/28 10:52:01;;;;;;;;;;;20.50;99.90;;;;;;5056325;28;19923;-74
2022/06/28 10:54:28;;;;;;;;;;;20.70;99.90;;;;;;5056699;28;19924;-64
2022/06/28 10:56:56;;;;;;;;;;;21.20;99.90;;;;;;5056243;28;20352;-70
2022/06/28 10:59:33;;;;;;;;;;;21.60;99.90;;;;;;5055026;28;19963;-72
2022/06/28 11:02:00;;;;;;;;;;;22.00;99.90;;;;;;5071851;28;19923;-70
2022/06/28 11:04:28;;;;;;;;;;;22.30;98.50;;;;;;5056479;28;20007;-72
2022/06/28 11:06:59;;;;;;;;;;;22.20;96.40;;;;;;5087706;28;19938;-71
2022/06/28 11:09:39;;;;;;;;;;;22.20;95.20;;;;;;5057300;28;20237;-71
2022/06/28 11:12:08;;;;;;;;;;;22.20;98.40;;;;;;5088244;28;19923;-73
2022/06/28 11:14:54;;;;;;;;;;;22.30;95.50;;;;;;5056359;28;19916;-73
2022/06/28 11:17:27;;;;;;;;;;;22.20;94.60;;;;;;5087800;28;19970;-72
2022/06/28 11:20:00;;;;;;;;;;;22.20;94.00;;;;;;5057029;28;19917;-72
2022/06/28 11:22:32;;;;;;;;;;;22.00;93.20;;;;;;5055854;28;19920;-70
2022/06/28 11:24:59;;;;;;;;;;;21.80;92.40;;;;;;5088707;28;19921;-66
2022/06/28 11:27:26;;;;;;;;;;;21.70;93.80;;;;;;5087977;28;19940;-70
2022/06/28 11:29:55;;;;;;;;;;;21.70;93.40;;;;;;5087691;28;19916;-70
2022/06/28 11:32:22;;;;;;;;;;;21.70;93.50;;;;;;5055565;28;20007;-69
2022/06/28 11:34:54;;;;;;;;;;;21.90;92.80;;;;;;5055943;28;20284;-69
2022/06/28 11:37:21;;;;;;;;;;;21.90;91.10;;;;;;5055721;28;20007;-71
2022/06/28 11:39:50;;;;;;;;;;;21.80;90.00;;;;;;5055416;28;19917;-67
2022/06/28 11:42:16;;;;;;;;;;;21.80;90.80;;;;;;5087534;28;19975;-68
2022/06/28 11:44:44;;;;;;;;;;;21.70;90.20;;;;;;5055616;28;20003;-68
2022/06/28 11:47:16;;;;;;;;;;;21.60;90.40;;;;;;5086466;28;19917;-68
2022/06/28 11:49:43;;;;;;;;;;;21.50;90.90;;;;;;5087371;28;19917;-69
2022/06/28 11:52:14;;;;;;;;;;;21.60;91.30;;;;;;5054859;28;19923;-66
2022/06/28 11:54:42;;;;;;;;;;;21.80;91.90;;;;;;5055181;28;19927;-67
2022/06/28 11:57:14;;;;;;;;;;;21.90;91.90;;;;;;5055049;28;20015;-69
2022/06/28 11:59:59;;;;;;;;;;;21.90;91.10;;;;;;5056011;28;20007;-73
2022/06/28 12:02:42;;;;;;;;;;;22.20;90.10;;;;;;5086910;28;20328;-68
2022/06/28 12:05:09;;;;;;;;;;;22.50;90.50;;;;;;5053713;28;19921;-69
2022/06/28 12:07:37;;;;;;;;;;;22.80;84.30;;;;;;5086725;28;19956;-68
2022/06/28 12:10:04;;;;;;;;;;;22.50;82.20;;;;;;5055112;28;19956;-69
2022/06/28 12:12:30;;;;;;;;;;;22.20;84.20;;;;;;5055753;28;19916;-71
2022/06/28 12:14:57;;;;;;;;;;;22.40;85.10;;;;;;5086857;28;19916;-70
2022/06/28 12:17:24;;;;;;;;;;;22.40;84.40;;;;;;5054745;28;19962;-74
2022/06/28 12:19:51;;;;;;;;;;;22.30;80.20;;;;;;5054951;28;19963;-67
2022/06/28 12:22:25;;;;;;;;;;;22.30;81.00;;;;;;5053792;28;19923;-68
2022/06/28 12:24:52;;;;;;;;;;;22.40;80.50;;;;;;5085549;28;20345;-65
2022/06/28 12:27:23;;;;;;;;;;;22.60;80.40;;;;;;5055339;28;19917;-66
2022/06/28 12:29:54;;;;;;;;;;;22.80;79.00;;;;;;5054771;28;19917;-64
2022/06/28 12:32:21;;;;;;;;;;;23.10;77.70;;;;;;5086541;28;20007;-66
2022/06/28 12:35:08;;;;;;;;;;;23.10;73.40;;;;;;5054583;28;19971;-66
2022/06/28 12:37:35;;;;;;;;;;;23.20;76.90;;;;;;5054334;28;19916;-65
2022/06/28 12:40:03;;;;;;;;;;;23.30;76.60;;;;;;5054295;28;20355;-66
2022/06/28 12:42:30;;;;;;;;;;;23.50;75.30;;;;;;5085911;28;20003;-66
2022/06/28 12:45:01;;;;;;;;;;;23.50;73.10;;;;;;5052906;28;20007;-64
2022/06/28 12:47:29;;;;;;;;;;;23.50;74.50;;;;;;5054102;28;19916;-64
2022/06/28 12:49:59;;;;;;;;;;;23.40;71.90;;;;;;5087370;28;19917;-64
2022/06/28 12:52:27;;;;;;;;;;;23.30;73.90;;;;;;5055130;28;19916;-64
2022/06/28 12:54:54;;;;;;;;;;;23.20;72.30;;;;;;5052767;28;19925;-63
2022/06/28 12:57:20;;;;;;;;;;;23.10;72.60;;;;;;5086062;28;19917;-66
2022/06/28 12:59:47;;;;;;;;;;;23.30;71.40;;;;;;5053927;28;19916;-65
2022/06/28 13:02:14;;;;;;;;;;;23.20;72.40;;;;;;5053849;28;19928;-68
2022/06/28 13:04:41;;;;;;;;;;;23.30;73.60;;;;;;5085936;28;19924;-67
2022/06/28 13:07:08;;;;;;;;;;;23.30;74.20;;;;;;5052553;28;19999;-67
2022/06/28 13:09:35;;;;;;;;;;;23.50;74.80;;;;;;5085874;28;20348;-67
2022/06/28 13:12:02;;;;;;;;;;;23.50;70.10;;;;;;5053636;28;19916;-73
2022/06/28 13:14:28;;;;;;;;;;;23.50;71.20;;;;;;5053992;28;20011;-63
2022/06/28 13:16:55;;;;;;;;;;;23.50;70.00;;;;;;5054016;28;19995;-62
2022/06/28 13:19:22;;;;;;;;;;;23.30;70.70;;;;;;5053580;28;19959;-63
2022/06/28 13:21:50;;;;;;;;;;;23.30;71.30;;;;;;5053890;28;19917;-61
2022/06/28 13:24:17;;;;;;;;;;;23.20;71.70;;;;;;5085865;28;19916;-62
2022/06/28 13:26:45;;;;;;;;;;;23.40;72.50;;;;;;5053914;28;19916;-63
2022/06/28 13:29:12;;;;;;;;;;;23.30;70.60;;;;;;5053440;28;19974;-62
2022/06/28 13:31:39;;;;;;;;;;;23.20;70.60;;;;;;5053175;28;19917;-63
2022/06/28 13:34:06;;;;;;;;;;;23.20;70.00;;;;;;5054052;28;19971;-63
2022/06/28 13:36:33;;;;;;;;;;;23.20;69.90;;;;;;5054354;28;19923;-63
2022/06/28 13:39:00;;;;;;;;;;;23.00;70.40;;;;;;5054505;28;19923;-64
2022/06/28 13:41:36;;;;;;;;;;;23.00;71.10;;;;;;5053773;28;19916;-64
2022/06/28 13:44:03;;;;;;;;;;;23.10;72.10;;;;;;5053393;28;19917;-63
2022/06/28 13:46:30;;;;;;;;;;;23.20;72.90;;;;;;5054217;28;19921;-63
2022/06/28 13:48:57;;;;;;;;;;;23.20;73.40;;;;;;5053666;28;19947;-63
2022/06/28 13:51:23;;;;;;;;;;;23.30;71.00;;;;;;5054179;28;19924;-62
2022/06/28 13:53:50;;;;;;;;;;;23.40;73.30;;;;;;5085701;28;19923;-62
2022/06/28 13:56:17;;;;;;;;;;;23.20;70.60;;;;;;5054190;28;19916;-63
2022/06/28 13:58:44;;;;;;;;;;;23.20;69.70;;;;;;5054142;28;20346;-63
2022/06/28 14:01:11;;;;;;;;;;;23.10;70.60;;;;;;5053032;28;19921;-63
2022/06/28 14:03:38;;;;;;;;;;;23.10;70.60;;;;;;5053541;28;19939;-63
2022/06/28 14:06:05;;;;;;;;;;;23.00;72.90;;;;;;5053488;28;19939;-63
2022/06/28 14:08:32;;;;;;;;;;;23.00;72.10;;;;;;5068821;28;19916;-63
2022/06/28 14:10:59;;;;;;;;;;;22.90;72.00;;;;;;5051955;28;20011;-63
2022/06/28 14:13:25;;;;;;;;;;;22.80;71.80;;;;;;5086193;28;19916;-63
2022/06/28 14:15:52;;;;;;;;;;;22.80;72.90;;;;;;5053084;28;19916;-64
2022/06/28 14:18:20;;;;;;;;;;;22.90;73.80;;;;;;5053473;28;20245;-64
2022/06/28 14:20:47;;;;;;;;;;;22.90;72.00;;;;;;5053131;28;20349;-63
2022/06/28 14:23:14;;;;;;;;;;;22.70;72.20;;;;;;5085176;28;19917;-63
2022/06/28 14:25:41;;;;;;;;;;;22.90;73.70;;;;;;5053285;28;20364;-64
2022/06/28 14:28:09;;;;;;;;;;;23.00;72.30;;;;;;5053311;28;20000;-66
2022/06/28 14:30:36;;;;;;;;;;;22.90;71.80;;;;;;5053282;28;19917;-65
2022/06/28 14:33:03;;;;;;;;;;;22.90;70.40;;;;;;5053231;28;20256;-62
2022/06/28 14:35:33;;;;;;;;;;;22.80;72.70;;;;;;5086108;28;19921;-64